Grindstone City, Michigan
Current Conditions -  °F | °C
As of 8:15 PM on Tuesday 27 Jan 2015 (Local Time) from KBAX Reporting Station
Clear Clear  
Wind Chill:   Ceiling: Unl
Heat Index: 14°   Visibility: 10mi
Dew Point: 10°   Wind: 5mph
Humidity: 82%   Direction: 350°N
Pressure: 30.22"   Gusts: NA
Location:  44.0077°N, 82.9857°W
Report Text: KBAX 280115Z AUTO 35004KT 10SM CLR M10/M12 A3022 RMK AO2 T11001125
Loading
Personal Weather Stations






























Interactive Weather Map New forecast layout! Learn more

10-Day Weather Forecast

Advertisements
Track Severe Weather on mobile